createdAt,value
2023-01-23T00:00:00.850Z,19.53
2023-01-23T00:02:31.174Z,20.43
2023-01-23T00:05:01.281Z,19.83
2023-01-23T00:07:34.025Z,20.17
2023-01-23T00:10:04.098Z,20.37
2023-01-23T00:12:36.847Z,19.67
2023-01-23T00:15:08.420Z,20.30
2023-01-23T00:17:39.186Z,19.43
2023-01-23T00:20:13.348Z,19.00
2023-01-23T00:22:46.154Z,18.97
2023-01-23T00:25:18.493Z,18.73
2023-01-23T00:27:56.118Z,18.67
2023-01-23T00:30:26.200Z,19.27
2023-01-23T00:32:56.354Z,17.60
2023-01-23T00:35:26.731Z,17.53
2023-01-23T00:37:59.521Z,18.37
2023-01-23T00:40:29.668Z,18.63
2023-01-23T00:42:59.834Z,18.13
2023-01-23T00:45:30.101Z,18.17
2023-01-23T00:48:00.258Z,18.80
2023-01-23T00:50:30.332Z,17.30
2023-01-23T00:53:03.052Z,17.97
2023-01-23T00:55:33.215Z,18.30
2023-01-23T00:58:03.625Z,16.50
2023-01-23T01:00:33.788Z,17.23
2023-01-23T01:03:04.048Z,17.87
2023-01-23T01:05:34.387Z,18.73
2023-01-23T01:08:08.124Z,17.03
2023-01-23T01:10:40.222Z,17.87
2023-01-23T01:13:12.235Z,16.77
2023-01-23T01:15:44.183Z,16.73
2023-01-23T01:18:14.437Z,16.33
2023-01-23T01:20:45.680Z,17.83
2023-01-23T01:23:18.970Z,17.37
2023-01-23T01:25:49.312Z,17.17
2023-01-23T01:28:19.427Z,16.53
2023-01-23T01:30:49.535Z,18.03
2023-01-23T01:33:19.670Z,16.63
2023-01-23T01:35:49.755Z,17.83
2023-01-23T01:38:23.400Z,17.43
2023-01-23T01:40:57.562Z,16.60
2023-01-23T01:43:33.913Z,17.57
2023-01-23T01:46:21.750Z,15.80
2023-01-23T01:49:07.289Z,15.83
2023-01-23T01:51:56.138Z,17.03
2023-01-23T01:54:34.886Z,17.53
2023-01-23T01:57:11.448Z,17.53
2023-01-23T01:59:49.220Z,16.27
2023-01-23T02:02:25.642Z,18.20
2023-01-23T02:05:03.335Z,16.80
2023-01-23T02:07:44.511Z,16.30
2023-01-23T02:10:19.470Z,14.97
2023-01-23T02:12:52.630Z,15.17
2023-01-23T02:15:25.384Z,16.40
2023-01-23T02:17:57.637Z,15.73
2023-01-23T02:20:31.647Z,15.90
2023-01-23T02:23:11.858Z,15.87
2023-01-23T02:25:57.839Z,15.93
2023-01-23T02:28:41.718Z,16.30
2023-01-23T02:31:13.352Z,15.13
2023-01-23T02:33:55.432Z,14.67
2023-01-23T02:36:30.411Z,14.83
2023-01-23T02:39:13.365Z,15.33
2023-01-23T02:41:50.140Z,14.70
2023-01-23T02:44:27.866Z,14.63
2023-01-23T02:46:58.624Z,14.93
2023-01-23T02:49:28.869Z,14.63
2023-01-23T02:52:00.138Z,16.17
2023-01-23T02:54:30.326Z,14.87
2023-01-23T02:57:03.632Z,14.07
2023-01-23T02:59:54.848Z,14.10
2023-01-23T03:02:25.079Z,15.20
2023-01-23T03:04:55.646Z,14.87
2023-01-23T03:07:28.125Z,14.83
2023-01-23T03:09:58.692Z,15.37
2023-01-23T03:12:31.672Z,13.60
2023-01-23T03:15:06.160Z,15.10
2023-01-23T03:17:38.055Z,15.70
2023-01-23T03:20:09.520Z,14.13
2023-01-23T03:22:40.742Z,13.67
2023-01-23T03:25:12.661Z,13.67
2023-01-23T03:27:45.327Z,14.87
2023-01-23T03:30:17.190Z,14.70
2023-01-23T03:32:50.980Z,15.77
2023-01-23T03:35:22.609Z,13.73
2023-01-23T03:37:53.118Z,13.33
2023-01-23T03:40:40.865Z,13.33
2023-01-23T03:43:13.888Z,13.60
2023-01-23T03:45:43.985Z,14.77
2023-01-23T03:48:14.077Z,14.67
2023-01-23T03:50:44.201Z,13.60
2023-01-23T03:53:14.435Z,13.63
2023-01-23T03:55:44.662Z,14.33
2023-01-23T03:58:17.855Z,14.27
2023-01-23T04:00:53.228Z,13.90
2023-01-23T04:03:24.561Z,21.57
2023-01-23T04:05:59.881Z,23.20
2023-01-23T04:08:32.362Z,16.17
2023-01-23T04:11:08.258Z,17.97
2023-01-23T04:13:41.567Z,23.80
2023-01-23T04:16:11.987Z,27.27
2023-01-23T04:18:44.792Z,22.03
2023-01-23T04:21:16.902Z,18.37
2023-01-23T04:23:47.183Z,14.90
2023-01-23T04:26:17.516Z,14.43
2023-01-23T04:28:50.422Z,14.90
2023-01-23T04:31:21.777Z,14.87
2023-01-23T04:33:51.909Z,14.93
2023-01-23T04:36:22.808Z,14.00
2023-01-23T04:38:53.320Z,14.20
2023-01-23T04:41:27.548Z,13.53
2023-01-23T04:44:19.955Z,14.67
2023-01-23T04:46:50.395Z,15.00
2023-01-23T04:49:21.501Z,16.90
2023-01-23T04:51:52.815Z,16.93
2023-01-23T04:54:25.106Z,14.70
2023-01-23T04:56:55.317Z,16.57
2023-01-23T04:59:27.991Z,15.90
2023-01-23T05:01:58.219Z,14.30
2023-01-23T05:04:28.309Z,13.87
2023-01-23T05:06:58.483Z,13.10
2023-01-23T05:09:28.556Z,14.80
2023-01-23T05:11:58.707Z,14.63
2023-01-23T05:14:31.656Z,16.10
2023-01-23T05:17:01.840Z,15.03
2023-01-23T05:19:31.913Z,15.53
2023-01-23T05:22:02.055Z,14.67
2023-01-23T05:24:32.264Z,13.80
2023-01-23T05:27:03.476Z,13.97
2023-01-23T05:29:36.311Z,15.80
2023-01-23T05:32:09.412Z,14.40
2023-01-23T05:34:39.928Z,12.83
2023-01-23T05:37:09.963Z,15.10
2023-01-23T05:39:40.113Z,14.83
2023-01-23T05:42:13.803Z,15.00
2023-01-23T05:44:48.187Z,14.00
2023-01-23T05:47:18.416Z,13.17
2023-01-23T05:49:48.589Z,13.73
2023-01-23T05:52:21.327Z,12.73
2023-01-23T05:54:51.582Z,14.47
2023-01-23T05:57:21.933Z,14.57
2023-01-23T05:59:57.218Z,13.80
2023-01-23T06:02:29.604Z,14.20
2023-01-23T06:04:59.903Z,14.17
2023-01-23T06:07:30.085Z,14.83
2023-01-23T06:10:01.171Z,13.73
2023-01-23T06:12:32.618Z,13.47
2023-01-23T06:15:05.790Z,16.13
2023-01-23T06:17:35.869Z,16.60
2023-01-23T06:20:08.027Z,21.00
2023-01-23T06:22:38.135Z,21.57
2023-01-23T06:25:09.758Z,32.70
2023-01-23T06:27:39.865Z,17.07
2023-01-23T06:30:15.885Z,20.77
2023-01-23T06:32:46.283Z,16.37
2023-01-23T06:35:16.485Z,17.87
2023-01-23T06:37:47.104Z,14.53
2023-01-23T06:40:20.197Z,13.97
2023-01-23T06:42:50.973Z,14.73
2023-01-23T06:45:23.732Z,14.17
2023-01-23T06:47:55.627Z,20.33
2023-01-23T06:50:25.761Z,15.13
2023-01-23T06:52:55.810Z,13.30
2023-01-23T06:55:25.964Z,12.47
2023-01-23T06:57:56.035Z,13.27
2023-01-23T07:00:29.425Z,14.23
2023-01-23T07:03:04.067Z,13.97
2023-01-23T07:05:35.920Z,12.77
2023-01-23T07:08:06.182Z,13.50
2023-01-23T07:10:37.887Z,12.83
2023-01-23T07:13:08.406Z,13.63
2023-01-23T07:15:41.335Z,13.50
2023-01-23T07:18:13.015Z,12.83
2023-01-23T07:20:43.181Z,13.50
2023-01-23T07:23:13.832Z,14.27
2023-01-23T07:25:44.529Z,12.30
2023-01-23T07:28:17.793Z,15.63
2023-01-23T07:30:53.486Z,35.47
2023-01-23T07:33:23.603Z,27.70
2023-01-23T07:35:53.727Z,15.83
2023-01-23T07:38:26.339Z,16.97
2023-01-23T07:41:01.297Z,17.23
2023-01-23T07:43:31.434Z,16.37
2023-01-23T07:46:05.831Z,14.50
2023-01-23T07:48:35.961Z,15.60
2023-01-23T07:51:07.154Z,15.63
2023-01-23T07:53:39.115Z,14.43
2023-01-23T07:56:10.817Z,14.17
2023-01-23T07:58:43.896Z,15.73
2023-01-23T08:01:16.715Z,16.10
2023-01-23T08:03:46.901Z,14.57
2023-01-23T08:06:17.337Z,13.23
2023-01-23T08:08:47.565Z,14.27
2023-01-23T08:11:18.110Z,15.80
2023-01-23T08:13:52.745Z,15.10
2023-01-23T08:16:25.673Z,14.00
2023-01-23T08:18:55.926Z,14.17
2023-01-23T08:21:26.517Z,16.33
2023-01-23T08:23:56.571Z,14.63
2023-01-23T08:26:26.675Z,12.53
2023-01-23T08:28:57.028Z,13.47
2023-01-23T08:31:29.943Z,11.37
2023-01-23T08:34:00.714Z,12.13
2023-01-23T08:36:31.249Z,12.40
2023-01-23T08:39:03.756Z,13.27
2023-01-23T08:41:33.982Z,12.40
2023-01-23T08:44:04.478Z,12.90
2023-01-23T08:46:37.412Z,11.07
2023-01-23T08:49:08.832Z,11.37
2023-01-23T08:51:40.075Z,11.30
2023-01-23T08:54:12.681Z,12.00
2023-01-23T08:56:43.504Z,10.80
2023-01-23T08:59:13.628Z,11.63
2023-01-23T09:01:48.415Z,12.53
2023-01-23T09:04:18.837Z,12.37
2023-01-23T09:06:48.919Z,12.73
2023-01-23T09:09:19.263Z,15.60
2023-01-23T09:11:49.361Z,12.30
2023-01-23T09:14:19.558Z,11.67
2023-01-23T09:16:52.352Z,12.23
2023-01-23T09:19:22.436Z,12.30
2023-01-23T09:21:57.010Z,11.53
2023-01-23T09:24:27.325Z,10.90
2023-01-23T09:26:57.450Z,11.97
2023-01-23T09:29:27.650Z,24.60
2023-01-23T09:32:02.066Z,30.23
2023-01-23T09:34:32.647Z,13.50
2023-01-23T09:37:02.763Z,13.67
2023-01-23T09:39:32.846Z,14.70
2023-01-23T09:42:08.929Z,12.00
2023-01-23T09:44:45.290Z,13.13
2023-01-23T09:47:27.386Z,14.50
2023-01-23T09:50:04.106Z,11.70
2023-01-23T09:52:39.609Z,12.30
2023-01-23T09:55:21.341Z,11.57
2023-01-23T09:58:01.101Z,12.60
2023-01-23T10:00:37.058Z,11.03
2023-01-23T10:03:19.037Z,11.63
2023-01-23T10:06:03.778Z,11.20
2023-01-23T10:08:45.608Z,10.70
2023-01-23T10:11:27.074Z,10.57
2023-01-23T10:14:41.479Z,11.23
2023-01-23T10:17:26.008Z,10.17
2023-01-23T10:20:32.190Z,10.10
2023-01-23T10:23:19.356Z,10.57
2023-01-23T10:25:51.261Z,10.03
2023-01-23T10:28:38.960Z,9.70
2023-01-23T10:31:19.232Z,10.40
2023-01-23T10:34:00.075Z,11.00
2023-01-23T10:36:53.928Z,9.93
2023-01-23T10:39:32.243Z,9.97
2023-01-23T10:42:03.091Z,12.67
2023-01-23T10:44:33.319Z,12.03
2023-01-23T10:47:14.900Z,19.20
2023-01-23T10:49:48.983Z,13.47
2023-01-23T10:52:49.357Z,13.57
2023-01-23T10:55:33.276Z,23.50
2023-01-23T10:58:07.353Z,18.97
2023-01-23T11:00:42.397Z,13.23
2023-01-23T11:03:31.330Z,13.00
2023-01-23T11:06:10.695Z,13.87
2023-01-23T11:08:54.077Z,11.70
2023-01-23T11:11:29.153Z,14.27
2023-01-23T11:14:16.228Z,13.77
2023-01-23T11:16:46.805Z,14.17
2023-01-23T11:19:25.286Z,13.13
2023-01-23T11:21:58.991Z,12.07
2023-01-23T11:24:41.820Z,10.70
2023-01-23T11:27:27.936Z,13.83
2023-01-23T11:30:34.279Z,14.97
2023-01-23T11:33:16.714Z,16.40
2023-01-23T11:36:03.624Z,17.73
2023-01-23T11:38:52.770Z,15.97
2023-01-23T11:41:33.584Z,12.07
2023-01-23T11:44:14.743Z,19.60
2023-01-23T11:47:14.599Z,22.77
2023-01-23T11:50:14.262Z,19.30
2023-01-23T11:53:11.434Z,16.87
2023-01-23T11:56:16.159Z,39.07
2023-01-23T11:59:26.054Z,31.00
2023-01-23T12:02:38.464Z,10.70
2023-01-23T12:05:29.819Z,11.53
2023-01-23T12:08:19.044Z,9.33
2023-01-23T12:11:12.600Z,8.07
2023-01-23T12:14:31.077Z,8.17
2023-01-23T12:17:29.244Z,7.27
2023-01-23T12:20:23.585Z,7.27
2023-01-23T12:23:16.840Z,6.07
2023-01-23T12:26:02.565Z,5.70
2023-01-23T12:29:05.038Z,4.97
2023-01-23T12:31:59.735Z,4.63
2023-01-23T12:35:00.335Z,4.53
2023-01-23T12:37:54.160Z,4.83
2023-01-23T12:40:37.688Z,4.30
2023-01-23T12:43:19.546Z,4.73
2023-01-23T12:46:01.752Z,4.70
2023-01-23T12:48:43.878Z,5.30
2023-01-23T12:51:23.049Z,9.40
2023-01-23T12:54:00.700Z,5.40
2023-01-23T12:56:36.802Z,6.43
2023-01-23T12:59:19.297Z,5.63
2023-01-23T13:02:09.776Z,4.50
2023-01-23T13:05:03.840Z,5.10
2023-01-23T13:07:51.415Z,5.20
2023-01-23T13:11:11.881Z,5.00
2023-01-23T13:13:45.116Z,6.23
2023-01-23T13:16:18.273Z,4.83
2023-01-23T13:19:13.573Z,5.87
2023-01-23T13:22:22.278Z,5.37
2023-01-23T13:25:17.630Z,5.10
2023-01-23T13:27:53.059Z,5.53
2023-01-23T13:30:43.147Z,7.37
2023-01-23T13:34:10.263Z,5.03
2023-01-23T13:36:49.636Z,6.00
2023-01-23T13:39:33.715Z,5.23
2023-01-23T13:42:43.028Z,5.30
2023-01-23T13:45:34.555Z,5.07
2023-01-23T14:21:41.109Z,6.63
2023-01-23T14:24:25.209Z,7.07
2023-01-23T14:27:07.830Z,7.37
2023-01-23T14:29:41.090Z,6.87
2023-01-23T14:32:26.186Z,6.47
2023-01-23T14:34:56.305Z,9.33
2023-01-23T14:37:27.746Z,9.07
2023-01-23T14:40:11.721Z,7.17
2023-01-23T14:42:43.432Z,8.00
2023-01-23T14:45:17.576Z,7.43
2023-01-23T14:47:59.687Z,8.57
2023-01-23T14:50:35.343Z,8.57
2023-01-23T14:53:09.908Z,9.73
2023-01-23T14:55:44.350Z,12.00
2023-01-23T14:58:23.602Z,11.17
2023-01-23T15:00:57.977Z,13.47
2023-01-23T15:03:45.794Z,14.63
2023-01-23T15:06:23.573Z,20.57
2023-01-23T15:08:54.631Z,26.13
2023-01-23T15:11:31.917Z,52.60
2023-01-23T15:14:04.437Z,43.73
2023-01-23T15:16:41.953Z,44.77
2023-01-23T15:19:25.077Z,47.73
2023-01-23T15:22:20.242Z,23.90
2023-01-23T15:24:51.036Z,19.27
2023-01-23T15:27:35.215Z,25.33
2023-01-23T15:30:40.116Z,15.13
2023-01-23T15:33:33.931Z,43.90
2023-01-23T15:36:20.036Z,23.60
2023-01-23T15:38:50.656Z,18.50
2023-01-23T15:41:33.884Z,15.33
2023-01-23T15:44:04.585Z,13.43
2023-01-23T15:46:34.780Z,11.40
2023-01-23T15:49:16.450Z,14.83
2023-01-23T15:51:54.583Z,16.60
2023-01-23T15:54:31.569Z,13.97
2023-01-23T15:57:09.218Z,14.00
2023-01-23T15:59:40.194Z,8.43
2023-01-23T16:02:30.490Z,7.07
2023-01-23T16:05:04.208Z,12.60
2023-01-23T16:07:36.972Z,9.87
2023-01-23T16:10:20.673Z,12.63
2023-01-23T16:12:53.084Z,12.03
2023-01-23T16:15:27.115Z,9.70
2023-01-23T16:17:58.913Z,9.70
2023-01-23T16:20:38.187Z,8.80
2023-01-23T16:23:16.891Z,9.17
2023-01-23T16:25:47.911Z,8.50
2023-01-23T16:28:20.286Z,9.57
2023-01-23T16:30:53.837Z,10.37
2023-01-23T16:33:26.122Z,11.80
2023-01-23T16:35:59.081Z,7.77
2023-01-23T16:38:32.177Z,9.67
2023-01-23T16:41:04.090Z,9.33
2023-01-23T16:43:35.670Z,6.73
2023-01-23T16:46:05.782Z,10.10
2023-01-23T16:48:36.139Z,8.73
2023-01-23T16:51:20.062Z,9.57
2023-01-23T16:53:56.055Z,8.57
2023-01-23T16:56:33.075Z,7.80
2023-01-23T16:59:03.591Z,7.57
2023-01-23T17:01:39.959Z,6.83
2023-01-23T17:04:10.521Z,9.63
2023-01-23T17:06:43.165Z,12.60
2023-01-23T17:09:15.829Z,9.97
2023-01-23T17:11:51.093Z,12.00
2023-01-23T17:14:28.754Z,12.33
2023-01-23T17:17:06.120Z,12.10
2023-01-23T17:19:41.647Z,11.40
2023-01-23T17:22:24.108Z,13.43
2023-01-23T17:24:54.584Z,14.40
2023-01-23T17:27:24.949Z,18.63
2023-01-23T17:29:57.489Z,15.80
2023-01-23T17:32:39.079Z,12.63
2023-01-23T17:35:19.416Z,13.80
2023-01-23T17:37:53.135Z,32.80
2023-01-23T17:40:23.947Z,20.00
2023-01-23T17:42:54.405Z,18.40
2023-01-23T17:45:28.009Z,14.43
2023-01-23T17:48:01.146Z,12.20
2023-01-23T17:50:31.362Z,14.30
2023-01-23T17:53:05.255Z,14.63
2023-01-23T17:55:35.441Z,15.77
2023-01-23T17:58:05.511Z,13.70
2023-01-23T18:00:35.795Z,24.30
2023-01-23T18:03:06.950Z,27.63
2023-01-23T18:05:37.463Z,22.57
2023-01-23T18:08:16.580Z,22.77
2023-01-23T18:10:51.467Z,21.73
2023-01-23T18:13:31.686Z,17.07
2023-01-23T18:16:14.388Z,11.97
2023-01-23T18:18:54.847Z,12.67
2023-01-23T18:21:26.083Z,13.63
2023-01-23T18:23:59.824Z,11.67
2023-01-23T18:26:46.225Z,10.27
2023-01-23T18:29:30.342Z,11.07
2023-01-23T18:32:54.492Z,13.10
2023-01-23T18:35:45.500Z,10.87
2023-01-23T18:38:23.578Z,10.77
2023-01-23T18:41:19.213Z,9.80
2023-01-23T18:43:56.545Z,9.63
2023-01-23T18:46:28.022Z,10.93
2023-01-23T18:48:59.200Z,13.77
2023-01-23T18:51:42.439Z,11.63
2023-01-23T18:54:28.190Z,11.77
2023-01-23T18:57:26.023Z,9.87
2023-01-23T19:00:20.726Z,10.30
2023-01-23T19:02:55.359Z,14.43
2023-01-23T19:05:37.047Z,23.40
2023-01-23T19:08:08.547Z,22.93
2023-01-23T19:10:48.939Z,13.07
2023-01-23T19:13:31.556Z,14.40
2023-01-23T19:16:11.433Z,12.90
2023-01-23T19:18:57.935Z,9.93
2023-01-23T19:21:31.374Z,17.60
2023-01-23T19:24:04.341Z,31.70
2023-01-23T19:26:39.374Z,49.30
2023-01-23T19:29:22.004Z,32.73
2023-01-23T19:32:09.682Z,17.77
2023-01-23T19:34:39.993Z,11.93
2023-01-23T19:37:10.131Z,12.03
2023-01-23T19:39:40.468Z,10.63
2023-01-23T19:42:17.304Z,12.63
2023-01-23T19:44:50.061Z,11.33
2023-01-23T19:47:20.153Z,10.97
2023-01-23T19:49:50.209Z,14.23
2023-01-23T19:52:20.777Z,14.90
2023-01-23T19:54:50.890Z,15.77
2023-01-23T19:57:20.980Z,15.47
2023-01-23T19:59:53.641Z,14.30
2023-01-23T20:02:25.579Z,14.93
2023-01-23T20:04:57.721Z,25.07
2023-01-23T20:07:27.792Z,17.40
2023-01-23T20:09:57.874Z,13.33
2023-01-23T20:12:28.054Z,13.00
2023-01-23T20:15:02.006Z,11.87
2023-01-23T20:17:32.138Z,12.23
2023-01-23T20:20:04.732Z,12.23
2023-01-23T20:22:34.853Z,10.57
2023-01-23T20:25:04.954Z,10.20
2023-01-23T20:27:35.103Z,11.03
2023-01-23T20:30:14.935Z,10.63
2023-01-23T20:32:45.424Z,10.47
2023-01-23T20:35:15.739Z,10.83
2023-01-23T20:37:46.145Z,10.57
2023-01-23T20:40:16.762Z,11.33
2023-01-23T20:42:47.122Z,11.53
2023-01-23T20:45:20.482Z,11.57
2023-01-23T20:47:53.416Z,12.40
2023-01-23T20:50:23.495Z,12.37
2023-01-23T20:53:06.153Z,10.97
2023-01-23T20:55:36.434Z,10.27
2023-01-23T20:58:18.972Z,11.77
2023-01-23T21:00:51.695Z,10.80
2023-01-23T21:03:21.912Z,10.60
2023-01-23T21:05:52.177Z,10.57
2023-01-23T21:08:22.308Z,10.13
2023-01-23T21:10:53.046Z,10.63
2023-01-23T21:13:23.459Z,10.27
2023-01-23T21:16:04.829Z,9.40
2023-01-23T21:18:41.251Z,9.87
2023-01-23T21:21:14.254Z,11.13
2023-01-23T21:23:47.153Z,9.13
2023-01-23T21:26:18.054Z,9.17
2023-01-23T21:28:50.538Z,9.27
2023-01-23T21:31:29.217Z,9.97
2023-01-23T21:34:02.933Z,9.30
2023-01-23T21:36:33.348Z,10.00
2023-01-23T21:39:04.034Z,8.63
2023-01-23T21:41:34.540Z,9.73
2023-01-23T21:44:04.728Z,8.57
2023-01-23T21:46:37.419Z,9.53
2023-01-23T21:49:07.781Z,9.50
2023-01-23T21:51:38.049Z,10.13
2023-01-23T21:54:08.362Z,10.10
2023-01-23T21:56:38.585Z,10.23
2023-01-23T21:59:10.958Z,9.67
2023-01-23T22:01:42.879Z,10.40
2023-01-23T22:04:16.601Z,8.93
2023-01-23T22:06:48.529Z,9.40
2023-01-23T22:09:20.859Z,9.13
2023-01-23T22:11:52.179Z,9.27
2023-01-23T22:14:22.543Z,15.53
2023-01-23T22:16:55.246Z,17.30
2023-01-23T22:19:26.023Z,16.23
2023-01-23T22:21:57.529Z,13.83
2023-01-23T22:24:27.824Z,12.97
2023-01-23T22:26:57.895Z,12.93
2023-01-23T22:29:27.988Z,16.60
2023-01-23T22:32:00.727Z,23.27
2023-01-23T22:34:31.194Z,19.93
2023-01-23T22:37:01.215Z,15.97
2023-01-23T22:39:31.412Z,11.37
2023-01-23T22:42:02.696Z,10.80
2023-01-23T22:44:34.777Z,11.07
2023-01-23T22:47:08.791Z,14.10
2023-01-23T22:49:39.041Z,12.83
2023-01-23T22:52:09.448Z,11.80
2023-01-23T22:54:41.741Z,14.77
2023-01-23T22:57:13.005Z,11.20
2023-01-23T22:59:43.185Z,13.47
2023-01-23T23:02:15.874Z,13.13
2023-01-23T23:04:49.995Z,9.60
2023-01-23T23:07:20.827Z,9.97
2023-01-23T23:09:50.942Z,17.50
2023-01-23T23:12:21.067Z,18.30
2023-01-23T23:14:51.206Z,15.37
2023-01-23T23:17:23.905Z,26.07
2023-01-23T23:19:54.076Z,28.50
2023-01-23T23:22:24.535Z,18.87
2023-01-23T23:24:54.705Z,12.87
2023-01-23T23:27:24.809Z,36.33
2023-01-23T23:29:54.927Z,17.87
2023-01-23T23:32:27.812Z,22.80
2023-01-23T23:34:59.343Z,36.70
2023-01-23T23:37:29.470Z,35.30
2023-01-23T23:39:59.538Z,28.83
2023-01-23T23:42:29.658Z,34.93
2023-01-23T23:44:59.761Z,11.97
2023-01-23T23:47:34.452Z,11.43
2023-01-23T23:50:07.487Z,12.33
2023-01-23T23:52:40.350Z,11.00
2023-01-23T23:55:11.855Z,25.83
2023-01-23T23:57:42.334Z,17.30
